createdAt,value
2016-12-04T00:00:57.678Z,0
2016-12-04T00:01:57.459Z,0
2016-12-04T00:02:56.830Z,0
2016-12-04T00:03:56.761Z,0
2016-12-04T00:04:57.761Z,0
2016-12-04T00:05:57.121Z,0
2016-12-04T00:06:56.812Z,0
2016-12-04T00:07:56.480Z,0
2016-12-04T00:08:56.497Z,0
2016-12-04T00:09:57.216Z,0
2016-12-04T00:10:57.434Z,0
2016-12-04T00:11:56.590Z,0
2016-12-04T00:12:56.533Z,0
2016-12-04T00:13:56.540Z,0
2016-12-04T00:14:56.577Z,0
2016-12-04T00:15:56.887Z,0
2016-12-04T00:16:56.524Z,0
2016-12-04T00:17:56.566Z,0
2016-12-04T00:18:56.538Z,0
2016-12-04T00:19:57.267Z,0
2016-12-04T00:20:57.531Z,0
2016-12-04T00:21:56.547Z,0
2016-12-04T00:22:57.001Z,0
2016-12-04T00:23:56.564Z,0
2016-12-04T00:24:56.702Z,0
2016-12-04T00:25:57.274Z,0
2016-12-04T00:26:56.893Z,0
2016-12-04T00:27:57.259Z,0
2016-12-04T00:28:56.882Z,0
2016-12-04T00:29:56.569Z,0
2016-12-04T00:30:56.560Z,0
2016-12-04T00:31:57.328Z,0
2016-12-04T00:32:57.626Z,0
2016-12-04T00:33:57.002Z,0
2016-12-04T00:34:56.762Z,0
2016-12-04T00:35:56.551Z,0
2016-12-04T00:36:56.810Z,0
2016-12-04T00:37:56.721Z,0
2016-12-04T00:38:56.541Z,0
2016-12-04T00:39:57.034Z,0
2016-12-04T00:40:56.886Z,0
2016-12-04T00:41:57.334Z,0
2016-12-04T00:42:56.626Z,0
2016-12-04T00:43:56.555Z,0
2016-12-04T00:44:56.701Z,0
2016-12-04T00:45:56.839Z,0
2016-12-04T00:46:56.880Z,0
2016-12-04T00:47:56.586Z,0
2016-12-04T00:48:56.692Z,0
2016-12-04T00:49:56.584Z,0
2016-12-04T00:50:56.576Z,0
2016-12-04T00:51:57.266Z,0
2016-12-04T00:52:56.829Z,0
2016-12-04T00:53:56.669Z,0
2016-12-04T00:54:56.712Z,0
2016-12-04T00:55:56.590Z,0
2016-12-04T00:56:56.612Z,0
2016-12-04T00:57:56.639Z,0
2016-12-04T00:58:56.686Z,0
2016-12-04T00:59:57.394Z,0
2016-12-04T01:00:57.097Z,0
2016-12-04T01:01:56.596Z,0
2016-12-04T01:02:56.588Z,0
2016-12-04T01:03:56.630Z,0
2016-12-04T01:04:56.645Z,0
2016-12-04T01:05:56.608Z,0
2016-12-04T01:06:57.627Z,0
2016-12-04T01:07:56.568Z,0
2016-12-04T01:08:56.691Z,0
2016-12-04T01:09:56.731Z,0
2016-12-04T01:10:56.853Z,0
2016-12-04T01:11:56.730Z,0
2016-12-04T01:12:56.548Z,0
2016-12-04T01:13:56.577Z,0
2016-12-04T01:14:56.583Z,0
2016-12-04T01:15:56.604Z,0
2016-12-04T01:16:56.699Z,0
2016-12-04T01:17:56.588Z,0
2016-12-04T01:18:56.709Z,0
2016-12-04T01:19:57.188Z,0
2016-12-04T01:20:57.383Z,0
2016-12-04T01:21:56.630Z,0
2016-12-04T01:22:56.856Z,0
2016-12-04T01:23:56.635Z,0
2016-12-04T01:24:56.719Z,0
2016-12-04T01:25:56.719Z,0
2016-12-04T01:26:56.741Z,0
2016-12-04T01:27:57.522Z,0
2016-12-04T01:28:56.743Z,0
2016-12-04T01:29:56.718Z,0
2016-12-04T01:30:56.649Z,0
2016-12-04T01:31:56.615Z,0
2016-12-04T01:32:57.367Z,0
2016-12-04T01:33:56.633Z,0
2016-12-04T01:34:56.860Z,0
2016-12-04T01:35:56.597Z,0
2016-12-04T01:36:56.644Z,0
2016-12-04T01:37:56.687Z,0
2016-12-04T01:38:56.626Z,0
2016-12-04T01:39:56.599Z,0
2016-12-04T01:40:56.616Z,0
2016-12-04T01:41:57.500Z,0
2016-12-04T01:42:56.619Z,0
2016-12-04T01:43:56.694Z,0
2016-12-04T01:44:56.683Z,0
2016-12-04T01:45:56.762Z,0
2016-12-04T01:46:57.275Z,0
2016-12-04T01:47:56.631Z,0
2016-12-04T01:48:57.547Z,0
2016-12-04T01:49:56.682Z,0
2016-12-04T01:50:56.904Z,0
2016-12-04T01:51:56.583Z,0
2016-12-04T01:52:57.305Z,0
2016-12-04T01:53:57.412Z,0
2016-12-04T01:54:56.996Z,0
2016-12-04T01:55:56.624Z,0
2016-12-04T01:56:57.531Z,0
2016-12-04T01:57:56.934Z,0
2016-12-04T01:58:56.633Z,0
2016-12-04T01:59:56.630Z,0
2016-12-04T02:00:56.619Z,0
2016-12-04T02:01:56.742Z,0
2016-12-04T02:02:56.630Z,0
2016-12-04T02:03:57.305Z,0
2016-12-04T02:04:56.760Z,0
2016-12-04T02:05:56.614Z,0
2016-12-04T02:06:56.767Z,0
2016-12-04T02:07:56.616Z,0
2016-12-04T02:08:57.540Z,0
2016-12-04T02:09:56.607Z,0
2016-12-04T02:10:56.623Z,0
2016-12-04T02:11:57.631Z,0
2016-12-04T02:12:56.992Z,0
2016-12-04T02:13:56.583Z,0
2016-12-04T02:14:56.729Z,0
2016-12-04T02:15:56.920Z,0
2016-12-04T02:16:56.707Z,0
2016-12-04T02:17:56.624Z,0
2016-12-04T02:18:56.685Z,0
2016-12-04T02:19:56.908Z,0
2016-12-04T02:20:56.592Z,0
2016-12-04T02:21:56.639Z,0
2016-12-04T02:22:56.615Z,0
2016-12-04T02:23:56.717Z,0
2016-12-04T02:24:56.785Z,0
2016-12-04T02:25:56.833Z,0
2016-12-04T02:26:56.703Z,0
2016-12-04T02:27:57.151Z,0
2016-12-04T02:28:56.654Z,0
2016-12-04T02:29:56.662Z,0
2016-12-04T02:30:56.662Z,0
2016-12-04T02:31:56.697Z,0
2016-12-04T02:32:56.729Z,0
2016-12-04T02:33:56.637Z,0
2016-12-04T02:34:56.704Z,0
2016-12-04T02:35:56.662Z,0
2016-12-04T02:36:56.905Z,0
2016-12-04T02:37:56.758Z,0
2016-12-04T02:38:56.705Z,0
2016-12-04T02:39:56.773Z,0
2016-12-04T02:40:56.676Z,0
2016-12-04T02:41:56.666Z,0
2016-12-04T02:42:56.642Z,0
2016-12-04T02:43:56.646Z,0
2016-12-04T02:44:56.790Z,0
2016-12-04T02:45:56.726Z,0
2016-12-04T02:46:56.678Z,0
2016-12-04T02:51:25.318Z,0
2016-12-04T02:52:24.879Z,0
2016-12-04T02:53:24.890Z,0
2016-12-04T02:54:24.906Z,0
2016-12-04T02:55:25.058Z,0
2016-12-04T02:56:24.943Z,0
2016-12-04T02:57:25.104Z,0
2016-12-04T02:58:24.963Z,0
2016-12-04T02:59:24.895Z,0
2016-12-04T03:00:25.009Z,0
2016-12-04T03:01:24.932Z,0
2016-12-04T03:02:24.922Z,0
2016-12-04T03:03:24.901Z,0
2016-12-04T03:04:25.002Z,0
2016-12-04T03:05:24.965Z,0
2016-12-04T03:06:24.994Z,0
2016-12-04T03:07:26.443Z,0
2016-12-04T03:08:24.904Z,0
2016-12-04T03:09:24.912Z,0
2016-12-04T03:10:24.916Z,0
2016-12-04T03:11:24.925Z,0
2016-12-04T03:12:24.944Z,0
2016-12-04T03:13:25.077Z,0
2016-12-04T03:14:25.025Z,0
2016-12-04T03:15:24.942Z,0
2016-12-04T03:16:24.925Z,0
2016-12-04T03:17:24.948Z,0
2016-12-04T03:18:24.915Z,0
2016-12-04T03:19:25.055Z,0
2016-12-04T03:20:24.998Z,0
2016-12-04T03:21:24.922Z,0
2016-12-04T03:22:24.897Z,0
2016-12-04T03:23:25.011Z,0
2016-12-04T03:24:24.938Z,0
2016-12-04T03:25:24.982Z,0
2016-12-04T03:26:24.915Z,0
2016-12-04T03:27:24.980Z,0
2016-12-04T03:28:25.043Z,0
2016-12-04T03:29:24.933Z,0
2016-12-04T03:30:24.909Z,0
2016-12-04T03:31:24.958Z,0
2016-12-04T03:32:24.868Z,0
2016-12-04T03:33:24.936Z,0
2016-12-04T03:34:24.965Z,0
2016-12-04T03:35:25.272Z,0
2016-12-04T03:36:24.945Z,0
2016-12-04T03:37:25.051Z,0
2016-12-04T03:38:24.901Z,0
2016-12-04T03:39:24.908Z,0
2016-12-04T03:40:24.916Z,0
2016-12-04T03:41:24.916Z,0
2016-12-04T03:42:24.966Z,0
2016-12-04T03:43:24.949Z,0
2016-12-04T03:44:25.297Z,0
2016-12-04T03:45:24.936Z,0
2016-12-04T03:46:25.033Z,0
2016-12-04T03:47:25.243Z,0
2016-12-04T03:48:24.897Z,0
2016-12-04T03:49:24.987Z,0
2016-12-04T03:50:25.452Z,0
2016-12-04T03:51:24.942Z,0
2016-12-04T03:52:24.980Z,0
2016-12-04T03:53:25.009Z,0
2016-12-04T03:54:24.920Z,0
2016-12-04T03:55:25.041Z,0
2016-12-04T03:56:24.985Z,0
2016-12-04T03:57:24.929Z,0
2016-12-04T03:58:24.936Z,0
2016-12-04T03:59:24.960Z,0
2016-12-04T04:00:24.957Z,0
2016-12-04T04:01:24.974Z,0
2016-12-04T04:02:24.984Z,0
2016-12-04T04:03:24.960Z,0
2016-12-04T04:04:24.966Z,0
2016-12-04T04:05:25.045Z,0
2016-12-04T04:06:26.037Z,0
2016-12-04T04:07:25.039Z,0
2016-12-04T04:08:25.085Z,0
2016-12-04T04:09:24.989Z,0
2016-12-04T04:10:25.522Z,0
2016-12-04T04:11:25.059Z,0
2016-12-04T04:12:24.960Z,0
2016-12-04T04:13:24.965Z,0
2016-12-04T04:14:25.125Z,0
2016-12-04T04:15:25.013Z,0
2016-12-04T04:16:25.138Z,0
2016-12-04T04:17:25.010Z,0
2016-12-04T04:18:25.131Z,0
2016-12-04T04:19:24.955Z,0
2016-12-04T04:20:25.835Z,0
2016-12-04T04:21:24.989Z,0
2016-12-04T04:22:25.057Z,0
2016-12-04T04:23:25.924Z,0
2016-12-04T04:24:24.940Z,0
2016-12-04T04:25:24.946Z,0
2016-12-04T04:26:24.983Z,0
2016-12-04T04:27:26.116Z,0
2016-12-04T04:28:24.932Z,0
2016-12-04T04:29:25.184Z,0
2016-12-04T04:30:25.080Z,0
2016-12-04T04:31:25.056Z,0
2016-12-04T04:32:25.007Z,0
2016-12-04T04:33:25.122Z,0
2016-12-04T04:34:24.993Z,0
2016-12-04T04:35:26.276Z,0
2016-12-04T04:36:24.966Z,0
2016-12-04T04:37:25.049Z,0
2016-12-04T04:38:25.023Z,0
2016-12-04T04:39:25.045Z,0
2016-12-04T04:40:25.031Z,0
2016-12-04T04:41:24.998Z,0
2016-12-04T04:42:24.965Z,0
2016-12-04T04:43:24.981Z,0
2016-12-04T04:44:25.104Z,0
2016-12-04T04:45:25.052Z,0
2016-12-04T04:46:24.991Z,0
2016-12-04T04:47:24.952Z,0
2016-12-04T04:48:25.005Z,0
2016-12-04T04:49:24.942Z,0
2016-12-04T04:50:25.054Z,0
2016-12-04T04:51:25.183Z,0
2016-12-04T04:52:24.920Z,0
2016-12-04T04:53:24.971Z,0
2016-12-04T04:54:24.983Z,0
2016-12-04T04:55:24.969Z,0
2016-12-04T04:56:24.989Z,0
2016-12-04T04:57:24.991Z,0
2016-12-04T04:58:25.051Z,0
2016-12-04T04:59:24.946Z,0
2016-12-04T05:00:25.052Z,0
2016-12-04T05:01:25.041Z,0
2016-12-04T05:02:24.924Z,0
2016-12-04T05:03:24.932Z,0
2016-12-04T05:04:25.014Z,0
2016-12-04T05:05:24.954Z,0
2016-12-04T05:06:24.973Z,0
2016-12-04T05:07:24.955Z,0
2016-12-04T05:08:24.979Z,0
2016-12-04T05:09:24.987Z,0
2016-12-04T05:10:25.396Z,0
2016-12-04T05:11:25.086Z,0
2016-12-04T05:12:25.023Z,0
2016-12-04T05:13:24.992Z,0
2016-12-04T05:14:25.022Z,0
2016-12-04T05:15:24.945Z,0
2016-12-04T05:16:25.920Z,0
2016-12-04T05:17:25.091Z,0
2016-12-04T05:18:24.953Z,0
2016-12-04T05:19:25.086Z,0
2016-12-04T05:20:25.020Z,0
2016-12-04T05:21:25.163Z,0
2016-12-04T05:22:24.957Z,0
2016-12-04T05:23:24.991Z,0
2016-12-04T05:24:24.965Z,0
2016-12-04T05:25:24.998Z,0
2016-12-04T05:26:25.021Z,0
2016-12-04T05:27:24.963Z,0
2016-12-04T05:28:25.045Z,0
2016-12-04T05:29:24.978Z,0
2016-12-04T05:30:25.070Z,0
2016-12-04T05:31:26.037Z,0
2016-12-04T05:32:25.021Z,0
2016-12-04T05:33:24.955Z,0
2016-12-04T05:34:26.713Z,0
2016-12-04T05:35:25.053Z,0
2016-12-04T05:36:25.048Z,0
2016-12-04T05:37:24.993Z,0
2016-12-04T05:38:24.973Z,0
2016-12-04T05:39:25.059Z,0
2016-12-04T05:40:25.083Z,0
2016-12-04T05:41:25.070Z,0
2016-12-04T05:42:25.028Z,0
2016-12-04T05:43:25.030Z,0
2016-12-04T05:44:24.979Z,0
2016-12-04T05:45:25.006Z,0
2016-12-04T05:46:25.007Z,0
2016-12-04T05:47:25.021Z,0
2016-12-04T05:48:25.015Z,0
2016-12-04T05:49:24.987Z,0
2016-12-04T05:50:24.980Z,0
2016-12-04T05:51:25.044Z,0
2016-12-04T05:52:25.091Z,0
2016-12-04T05:53:24.968Z,0
2016-12-04T05:54:24.985Z,0
2016-12-04T05:55:25.097Z,0
2016-12-04T05:56:25.109Z,0
2016-12-04T05:57:25.073Z,0
2016-12-04T05:58:25.005Z,0
2016-12-04T05:59:24.967Z,0
2016-12-04T06:00:25.062Z,0
2016-12-04T06:01:25.162Z,0
2016-12-04T06:02:24.963Z,0
2016-12-04T06:03:24.996Z,0
2016-12-04T06:04:25.765Z,0
2016-12-04T06:05:24.958Z,0
2016-12-04T06:06:25.071Z,0
2016-12-04T06:07:24.956Z,0
2016-12-04T06:08:25.018Z,0
2016-12-04T06:09:24.996Z,0
2016-12-04T06:10:24.991Z,0
2016-12-04T06:11:24.994Z,0
2016-12-04T06:12:25.074Z,0
2016-12-04T06:13:25.692Z,0
2016-12-04T06:14:25.007Z,0
2016-12-04T06:15:25.121Z,0
2016-12-04T06:16:25.074Z,0
2016-12-04T06:17:24.978Z,0
2016-12-04T06:18:25.725Z,0
2016-12-04T06:19:25.076Z,0
2016-12-04T06:20:25.008Z,0
2016-12-04T06:21:27.191Z,0
2016-12-04T06:22:25.127Z,0
2016-12-04T06:23:25.142Z,0
2016-12-04T06:24:25.040Z,0
2016-12-04T06:25:25.107Z,0
2016-12-04T06:26:24.999Z,0
2016-12-04T06:27:25.047Z,0
2016-12-04T06:28:25.016Z,0
2016-12-04T06:29:25.081Z,0
2016-12-04T06:30:25.316Z,0
2016-12-04T06:31:25.056Z,0
2016-12-04T06:32:25.353Z,0
2016-12-04T06:33:25.036Z,0
2016-12-04T06:34:25.075Z,0
2016-12-04T06:35:25.034Z,0
2016-12-04T06:36:25.025Z,0
2016-12-04T06:37:25.069Z,0
2016-12-04T06:38:25.031Z,0
2016-12-04T06:39:25.085Z,0
2016-12-04T06:40:25.012Z,0
2016-12-04T06:41:25.040Z,0
2016-12-04T06:42:25.055Z,0
2016-12-04T06:43:25.146Z,0
2016-12-04T06:44:25.226Z,4
2016-12-04T06:45:25.228Z,4
2016-12-04T06:46:25.056Z,4
2016-12-04T06:47:25.014Z,4
2016-12-04T06:48:25.071Z,0
2016-12-04T06:49:25.049Z,4
2016-12-04T06:50:25.018Z,4
2016-12-04T06:51:25.055Z,8
2016-12-04T06:52:25.010Z,4
2016-12-04T06:53:25.833Z,8
2016-12-04T06:54:25.055Z,8
2016-12-04T06:55:25.649Z,12
2016-12-04T06:56:25.042Z,12
2016-12-04T06:57:25.035Z,16
2016-12-04T06:58:25.028Z,16
2016-12-04T06:59:25.020Z,20
2016-12-04T07:00:25.060Z,20
2016-12-04T07:01:25.032Z,28
2016-12-04T07:02:25.093Z,28
2016-12-04T07:03:25.039Z,36
2016-12-04T07:04:25.009Z,40
2016-12-04T07:05:25.116Z,44
2016-12-04T07:06:25.075Z,52
2016-12-04T07:07:25.054Z,56
2016-12-04T07:08:24.977Z,60
2016-12-04T07:09:25.010Z,72
2016-12-04T07:10:25.230Z,76
2016-12-04T07:11:25.223Z,88
2016-12-04T07:12:25.087Z,96
2016-12-04T07:13:25.055Z,104
2016-12-04T07:14:25.067Z,112
2016-12-04T07:15:24.959Z,124
2016-12-04T07:16:25.009Z,136
2016-12-04T07:17:25.020Z,152
2016-12-04T07:18:25.244Z,164
2016-12-04T07:19:25.010Z,176
2016-12-04T07:20:24.970Z,196
2016-12-04T07:21:25.154Z,212
2016-12-04T07:22:25.106Z,228
2016-12-04T07:23:25.021Z,248
2016-12-04T07:24:24.995Z,268
2016-12-04T07:25:25.095Z,288
2016-12-04T07:26:24.987Z,308
2016-12-04T07:27:24.987Z,328
2016-12-04T07:28:25.008Z,356
2016-12-04T07:29:25.256Z,380
2016-12-04T07:30:25.003Z,404
2016-12-04T07:31:25.043Z,432
2016-12-04T07:32:25.044Z,456
2016-12-04T07:33:25.007Z,480
2016-12-04T07:34:25.102Z,504
2016-12-04T07:35:25.104Z,528
2016-12-04T07:36:25.177Z,552
2016-12-04T07:37:25.178Z,580
2016-12-04T07:38:25.081Z,604
2016-12-04T07:39:25.175Z,632
2016-12-04T07:40:25.011Z,656
2016-12-04T07:41:25.709Z,684
2016-12-04T07:42:25.110Z,708
2016-12-04T07:43:25.373Z,736
2016-12-04T07:44:25.112Z,756
2016-12-04T07:45:25.771Z,780
2016-12-04T07:46:25.183Z,808
2016-12-04T07:47:25.059Z,832
2016-12-04T07:48:24.997Z,856
2016-12-04T07:49:25.123Z,880
2016-12-04T07:50:25.105Z,904
2016-12-04T07:51:25.233Z,928
2016-12-04T07:52:25.172Z,956
2016-12-04T07:53:25.072Z,984
2016-12-04T07:54:25.228Z,1008
2016-12-04T07:55:25.053Z,1032
2016-12-04T07:56:25.043Z,1060
2016-12-04T07:57:25.089Z,1080
2016-12-04T07:58:25.072Z,1108
2016-12-04T07:59:25.038Z,1136
2016-12-04T08:00:25.062Z,1164
2016-12-04T08:01:25.102Z,1184
2016-12-04T08:02:25.174Z,1208
2016-12-04T08:03:25.129Z,1228
2016-12-04T08:04:25.200Z,1248
2016-12-04T08:05:25.079Z,1272
2016-12-04T08:06:25.122Z,1296
2016-12-04T08:07:25.144Z,1320
2016-12-04T08:08:25.145Z,1340
2016-12-04T08:09:25.134Z,1360
2016-12-04T08:10:25.076Z,1380
2016-12-04T08:11:25.066Z,1400
2016-12-04T08:12:25.108Z,1420
2016-12-04T08:13:25.072Z,1436
2016-12-04T08:14:25.076Z,1452
2016-12-04T08:15:25.050Z,1468
2016-12-04T08:16:25.075Z,1484
2016-12-04T08:17:25.116Z,1496
2016-12-04T08:18:25.081Z,1512
2016-12-04T08:19:25.086Z,1524
2016-12-04T08:20:25.076Z,1536
2016-12-04T08:21:25.076Z,1552
2016-12-04T08:22:25.090Z,1564
2016-12-04T08:23:25.097Z,1572
2016-12-04T08:24:25.051Z,1584
2016-12-04T08:25:25.062Z,1600
2016-12-04T08:26:25.070Z,1612
2016-12-04T08:27:25.125Z,1628
2016-12-04T08:28:25.059Z,1640
2016-12-04T08:29:25.069Z,1656
2016-12-04T08:30:25.056Z,1672
2016-12-04T08:31:25.062Z,1688
2016-12-04T08:32:25.075Z,1700
2016-12-04T08:33:25.075Z,1712
2016-12-04T08:34:25.169Z,1724
2016-12-04T08:35:25.103Z,1732
2016-12-04T08:36:25.080Z,1748
2016-12-04T08:37:25.124Z,1760
2016-12-04T08:38:25.143Z,1768
2016-12-04T08:39:25.129Z,1776
2016-12-04T08:40:25.098Z,1788
2016-12-04T08:41:25.093Z,1796
2016-12-04T08:42:25.092Z,1812
2016-12-04T08:43:25.104Z,1824
2016-12-04T08:44:25.058Z,1836
2016-12-04T08:45:25.014Z,1848
2016-12-04T08:46:25.054Z,1856
2016-12-04T08:47:25.073Z,1868
2016-12-04T08:48:25.062Z,1876
2016-12-04T08:49:25.059Z,1892
2016-12-04T08:50:25.051Z,1904
2016-12-04T08:51:25.032Z,1916
2016-12-04T08:52:25.065Z,1920
2016-12-04T08:53:25.067Z,1932
2016-12-04T08:54:25.031Z,1936
2016-12-04T08:55:25.118Z,1948
2016-12-04T08:56:25.048Z,1956
2016-12-04T08:57:25.133Z,1964
2016-12-04T08:58:25.106Z,1968
2016-12-04T08:59:25.875Z,1972
2016-12-04T09:00:25.141Z,1984
2016-12-04T09:01:25.135Z,1988
2016-12-04T09:02:25.115Z,1988
2016-12-04T09:03:25.119Z,1988
2016-12-04T09:04:25.117Z,1988
2016-12-04T09:05:25.103Z,1988
2016-12-04T09:06:25.109Z,1992
2016-12-04T09:07:25.173Z,2000
2016-12-04T09:08:25.163Z,2000
2016-12-04T09:09:25.167Z,2004
2016-12-04T09:10:25.142Z,2004
2016-12-04T09:11:25.222Z,2008
2016-12-04T09:12:25.285Z,2004
2016-12-04T09:13:25.103Z,2008
2016-12-04T09:14:25.158Z,2012
2016-12-04T09:15:25.200Z,2008
2016-12-04T09:16:25.216Z,2012
2016-12-04T09:17:25.136Z,2008
2016-12-04T09:18:25.169Z,2012
2016-12-04T09:19:25.229Z,2016
2016-12-04T09:20:25.125Z,2024
2016-12-04T09:21:25.139Z,2028
2016-12-04T09:22:25.208Z,2024
2016-12-04T09:23:25.105Z,2028
2016-12-04T09:24:25.148Z,2036
2016-12-04T09:25:25.116Z,2044
2016-12-04T09:26:25.171Z,2052
2016-12-04T09:27:25.234Z,2056
2016-12-04T09:28:25.085Z,2068
2016-12-04T09:29:25.362Z,2072
2016-12-04T09:30:25.023Z,2076
2016-12-04T09:31:25.072Z,2088
2016-12-04T09:32:25.073Z,2088
2016-12-04T09:33:25.114Z,2092
2016-12-04T09:34:33.926Z,2092
2016-12-04T09:35:25.485Z,2096
2016-12-04T09:36:34.727Z,2096
2016-12-04T09:37:34.787Z,2100
2016-12-04T09:38:34.678Z,2104
2016-12-04T09:39:35.352Z,2108
2016-12-04T09:40:27.991Z,2108
2016-12-04T09:41:35.336Z,2108
2016-12-04T09:42:34.912Z,2116
2016-12-04T09:43:33.682Z,2124
2016-12-04T09:44:34.316Z,2132
2016-12-04T09:45:33.829Z,2136
2016-12-04T09:46:34.162Z,2144
2016-12-04T09:47:37.663Z,2148
2016-12-04T09:48:34.559Z,2160
2016-12-04T09:49:35.102Z,2164
2016-12-04T09:50:34.948Z,2168
2016-12-04T09:51:35.670Z,2172
2016-12-04T09:52:35.646Z,2176
2016-12-04T09:53:35.014Z,2176
2016-12-04T09:54:34.363Z,2180
2016-12-04T09:55:34.832Z,2184
2016-12-04T09:56:35.873Z,2188
2016-12-04T09:57:29.738Z,2188
2016-12-04T09:58:34.589Z,2192
2016-12-04T09:59:33.577Z,2196
2016-12-04T10:00:34.193Z,2200
2016-12-04T10:01:34.685Z,2200
2016-12-04T10:02:25.090Z,2204
2016-12-04T10:03:25.665Z,2208
2016-12-04T10:04:25.136Z,2216
2016-12-04T10:05:25.158Z,2212
2016-12-04T10:06:25.147Z,2220
2016-12-04T10:07:25.352Z,2224
2016-12-04T10:08:25.299Z,2228
2016-12-04T10:09:26.101Z,2236
2016-12-04T10:10:25.125Z,2236
2016-12-04T10:11:25.128Z,2248
2016-12-04T10:12:25.287Z,2244
2016-12-04T10:13:25.114Z,2252
2016-12-04T10:14:25.396Z,2248
2016-12-04T10:15:25.385Z,2248
2016-12-04T10:16:25.273Z,2252
2016-12-04T10:17:25.129Z,2260
2016-12-04T10:18:25.179Z,2264
2016-12-04T10:19:25.327Z,2272
2016-12-04T10:20:25.091Z,2272
2016-12-04T10:21:25.161Z,2276
2016-12-04T10:22:25.332Z,2272
2016-12-04T10:23:25.117Z,2280
2016-12-04T10:24:25.165Z,2280
2016-12-04T10:25:25.107Z,2284
2016-12-04T10:26:25.163Z,2288
2016-12-04T10:27:25.696Z,2292
2016-12-04T10:28:25.244Z,2296
2016-12-04T10:29:25.149Z,2296
2016-12-04T10:30:26.026Z,2296
2016-12-04T10:31:25.141Z,2296
2016-12-04T10:32:25.150Z,2300
2016-12-04T10:33:25.824Z,2300
2016-12-04T10:34:25.136Z,2308
2016-12-04T10:35:25.094Z,2312
2016-12-04T10:36:25.101Z,2316
2016-12-04T10:37:25.141Z,2316
2016-12-04T10:38:25.189Z,2316
2016-12-04T10:39:25.104Z,2316
2016-12-04T10:40:25.659Z,2316
2016-12-04T10:41:25.194Z,2324
2016-12-04T10:42:25.216Z,2320
2016-12-04T10:43:25.150Z,2320
2016-12-04T10:44:25.188Z,2324
2016-12-04T10:45:25.104Z,2324
2016-12-04T10:46:25.210Z,2328
2016-12-04T10:47:25.259Z,2328
2016-12-04T10:48:25.237Z,2328
2016-12-04T10:49:25.221Z,2332
2016-12-04T10:50:25.131Z,2332
2016-12-04T10:51:25.151Z,2332
2016-12-04T10:52:25.136Z,2340
2016-12-04T10:53:25.156Z,2340
2016-12-04T10:54:25.179Z,2340
2016-12-04T10:55:25.176Z,2348
2016-12-04T10:56:25.133Z,2348
2016-12-04T10:57:25.430Z,2344
2016-12-04T10:58:25.144Z,2352
2016-12-04T10:59:25.511Z,2348
2016-12-04T11:00:25.429Z,2352
2016-12-04T11:01:25.195Z,2360
2016-12-04T11:02:25.485Z,2360
2016-12-04T11:03:25.162Z,2364
2016-12-04T11:04:25.108Z,2364
2016-12-04T11:05:25.358Z,2364
2016-12-04T11:06:25.197Z,2368
2016-12-04T11:07:25.189Z,2368
2016-12-04T11:08:25.325Z,2368
2016-12-04T11:09:25.143Z,2372
2016-12-04T11:10:25.284Z,2372
2016-12-04T11:11:25.128Z,2376
2016-12-04T11:12:25.186Z,2380
2016-12-04T11:13:25.128Z,2384
2016-12-04T11:14:25.135Z,2380
2016-12-04T11:15:25.178Z,2384
2016-12-04T11:16:25.279Z,2388
2016-12-04T11:17:25.125Z,2388
2016-12-04T11:18:25.493Z,2388
2016-12-04T11:19:25.439Z,2388
2016-12-04T11:20:25.258Z,2388
2016-12-04T11:21:25.196Z,2388
2016-12-04T11:22:25.143Z,2388
2016-12-04T11:23:25.321Z,2392
2016-12-04T11:24:25.201Z,2396
2016-12-04T11:25:25.352Z,2400
2016-12-04T11:26:25.202Z,2400
2016-12-04T11:27:25.695Z,2400
2016-12-04T11:28:25.177Z,2404
2016-12-04T11:29:25.233Z,2400
2016-12-04T11:30:26.640Z,2400
2016-12-04T11:31:25.311Z,2404
2016-12-04T11:32:25.231Z,2404
2016-12-04T11:33:25.183Z,2404
2016-12-04T11:34:25.146Z,2404
2016-12-04T11:35:26.014Z,2404
2016-12-04T11:36:25.236Z,2412
2016-12-04T11:37:25.508Z,2412
2016-12-04T11:38:25.265Z,2412
2016-12-04T11:39:25.681Z,2412
2016-12-04T11:40:25.301Z,2416
2016-12-04T11:41:25.522Z,2400
2016-12-04T11:42:25.254Z,2412
2016-12-04T11:43:25.260Z,2416
2016-12-04T11:44:25.175Z,2416
2016-12-04T11:45:25.242Z,2416
2016-12-04T11:46:25.949Z,2416
2016-12-04T11:47:25.212Z,2412
2016-12-04T11:48:25.180Z,2412
2016-12-04T11:49:25.305Z,2408
2016-12-04T11:50:25.463Z,2416
2016-12-04T11:51:25.324Z,2416
2016-12-04T11:52:25.381Z,2420
2016-12-04T11:53:25.593Z,2420
2016-12-04T11:54:26.074Z,2420
2016-12-04T11:55:25.236Z,2424
2016-12-04T11:56:25.566Z,2428
2016-12-04T11:57:25.287Z,2428
2016-12-04T11:58:25.569Z,2432
2016-12-04T11:59:26.501Z,2432
2016-12-04T12:00:25.205Z,2432
2016-12-04T12:01:25.491Z,2432
2016-12-04T12:02:25.591Z,2432
2016-12-04T12:03:25.280Z,2432
2016-12-04T12:04:25.190Z,2436
2016-12-04T12:05:25.178Z,2436
2016-12-04T12:06:25.340Z,2440
2016-12-04T12:07:25.410Z,2448
2016-12-04T12:08:25.159Z,2448
2016-12-04T12:09:25.263Z,2456
2016-12-04T12:10:25.197Z,2468
2016-12-04T12:11:25.830Z,2472
2016-12-04T12:12:25.770Z,2476
2016-12-04T12:13:25.231Z,2480
2016-12-04T12:14:25.189Z,2480
2016-12-04T12:15:25.207Z,2484
2016-12-04T12:16:25.181Z,2488
2016-12-04T12:17:25.298Z,2492
2016-12-04T12:18:25.257Z,2496
2016-12-04T12:19:25.607Z,2500
2016-12-04T12:20:26.143Z,2508
2016-12-04T12:21:25.258Z,2504
2016-12-04T12:22:25.370Z,2500
2016-12-04T12:23:25.278Z,2508
2016-12-04T12:24:25.319Z,2508
2016-12-04T12:25:25.192Z,2516
2016-12-04T12:26:25.252Z,2516
2016-12-04T12:27:25.228Z,2528
2016-12-04T12:28:25.306Z,2528
2016-12-04T12:29:26.777Z,2532
2016-12-04T12:30:25.175Z,2536
2016-12-04T12:31:25.164Z,2540
2016-12-04T12:32:25.509Z,2544
2016-12-04T12:33:25.181Z,2552
2016-12-04T12:34:25.285Z,2552
2016-12-04T12:35:25.266Z,2556
2016-12-04T12:36:26.219Z,2556
2016-12-04T12:37:26.656Z,2556
2016-12-04T12:38:25.634Z,2552
2016-12-04T12:39:25.159Z,2548
2016-12-04T12:40:25.362Z,2544
2016-12-04T12:41:25.243Z,2532
2016-12-04T12:42:25.747Z,2532
2016-12-04T12:43:25.238Z,2528
2016-12-04T12:44:25.291Z,2520
2016-12-04T12:45:25.425Z,2520
2016-12-04T12:46:25.334Z,2516
2016-12-04T12:47:25.618Z,2512
2016-12-04T12:48:25.657Z,2508
2016-12-04T12:49:25.513Z,2504
2016-12-04T12:50:25.287Z,2500
2016-12-04T12:51:25.433Z,2496
2016-12-04T12:52:25.225Z,2496
2016-12-04T12:53:25.566Z,2488
2016-12-04T12:54:25.538Z,2488
2016-12-04T12:55:25.204Z,2480
2016-12-04T12:56:25.243Z,2476
2016-12-04T12:57:25.336Z,2472
2016-12-04T12:58:25.517Z,2468
2016-12-04T12:59:25.273Z,2464
2016-12-04T13:00:25.396Z,2460
2016-12-04T13:01:25.934Z,2456
2016-12-04T13:02:25.772Z,2452
2016-12-04T13:03:25.334Z,2448
2016-12-04T13:04:25.361Z,2448
2016-12-04T13:05:25.769Z,2440
2016-12-04T13:06:25.236Z,2436
2016-12-04T13:07:26.094Z,2432
2016-12-04T13:08:25.263Z,2428
2016-12-04T13:09:25.375Z,2428
2016-12-04T13:10:25.247Z,2420
2016-12-04T13:11:25.195Z,2412
2016-12-04T13:12:25.226Z,2408
2016-12-04T13:13:25.206Z,2400
2016-12-04T13:14:25.970Z,2392
2016-12-04T13:15:25.251Z,2388
2016-12-04T13:16:25.675Z,2384
2016-12-04T13:17:25.554Z,2380
2016-12-04T13:18:25.346Z,2372
2016-12-04T13:19:25.210Z,2364
2016-12-04T13:20:25.228Z,2360
2016-12-04T13:21:25.221Z,2352
2016-12-04T13:22:25.327Z,2344
2016-12-04T13:23:25.250Z,2340
2016-12-04T13:24:25.208Z,2332
2016-12-04T13:25:25.365Z,2328
2016-12-04T13:26:25.498Z,2320
2016-12-04T13:27:25.286Z,2316
2016-12-04T13:28:25.233Z,2308
2016-12-04T13:29:25.231Z,2300
2016-12-04T13:30:25.201Z,2292
2016-12-04T13:31:25.246Z,2284
2016-12-04T13:32:25.340Z,2276
2016-12-04T13:33:25.221Z,2272
2016-12-04T13:34:25.290Z,2260
2016-12-04T13:35:25.220Z,2252
2016-12-04T13:36:25.239Z,2248
2016-12-04T13:37:25.291Z,2236
2016-12-04T13:38:25.240Z,2228
2016-12-04T13:39:25.229Z,2224
2016-12-04T13:40:25.264Z,2212
2016-12-04T13:41:25.319Z,2208
2016-12-04T13:42:25.381Z,2196
2016-12-04T13:43:25.350Z,2188
2016-12-04T13:44:25.256Z,2180
2016-12-04T13:45:25.228Z,2172
2016-12-04T13:46:25.253Z,2164
2016-12-04T13:47:25.270Z,2156
2016-12-04T13:48:26.095Z,2144
2016-12-04T13:49:25.305Z,2136
2016-12-04T13:50:25.279Z,2128
2016-12-04T13:51:25.222Z,2116
2016-12-04T13:52:25.918Z,2104
2016-12-04T13:53:25.388Z,2096
2016-12-04T13:54:25.263Z,2084
2016-12-04T13:55:25.262Z,2076
2016-12-04T13:56:25.288Z,2064
2016-12-04T13:57:25.366Z,2052
2016-12-04T13:58:25.364Z,2040
2016-12-04T13:59:25.814Z,2028
2016-12-04T14:00:25.453Z,2016
2016-12-04T14:01:25.362Z,2008
2016-12-04T14:02:26.014Z,1992
2016-12-04T14:03:25.315Z,1984
2016-12-04T14:04:25.244Z,1972
2016-12-04T14:05:25.311Z,1956
2016-12-04T14:06:25.379Z,1944